createdAt,value
2023-08-02T00:01:29.587Z,10.75
2023-08-02T00:04:09.823Z,10.60
2023-08-02T00:06:37.797Z,12.00
2023-08-02T00:09:04.563Z,11.38
2023-08-02T00:11:31.317Z,12.82
2023-08-02T00:13:57.999Z,12.57
2023-08-02T00:16:24.844Z,13.45
2023-08-02T00:18:51.632Z,13.00
2023-08-02T00:21:18.307Z,13.30
2023-08-02T00:23:45.058Z,13.80
2023-08-02T00:26:12.018Z,13.40
2023-08-02T00:28:38.655Z,13.18
2023-08-02T00:31:05.370Z,15.85
2023-08-02T00:33:32.076Z,12.55
2023-08-02T00:35:59.195Z,12.32
2023-08-02T00:38:25.970Z,11.57
2023-08-02T00:40:52.634Z,10.75
2023-08-02T00:43:19.996Z,12.80
2023-08-02T00:45:46.946Z,11.65
2023-08-02T00:48:13.866Z,12.23
2023-08-02T00:50:40.591Z,11.90
2023-08-02T00:53:07.261Z,11.02
2023-08-02T00:55:34.955Z,11.48
2023-08-02T00:58:01.692Z,11.63
2023-08-02T01:00:29.212Z,11.65
2023-08-02T01:02:56.245Z,13.15
2023-08-02T01:05:27.157Z,10.50
2023-08-02T01:07:59.486Z,11.55
2023-08-02T01:10:55.709Z,11.73
2023-08-02T01:13:23.090Z,12.25
2023-08-02T01:15:49.902Z,12.13
2023-08-02T01:18:16.916Z,11.48
2023-08-02T01:20:43.697Z,11.02
2023-08-02T01:23:10.385Z,11.30
2023-08-02T01:25:37.365Z,12.10
2023-08-02T01:28:06.822Z,11.27
2023-08-02T01:30:39.588Z,12.43
2023-08-02T01:33:07.054Z,12.50
2023-08-02T01:35:34.357Z,11.27
2023-08-02T01:38:01.054Z,11.02
2023-08-02T01:40:27.794Z,11.40
2023-08-02T01:42:54.438Z,13.57
2023-08-02T01:45:21.242Z,13.18
2023-08-02T01:47:49.028Z,14.55
2023-08-02T01:50:15.834Z,12.35
2023-08-02T01:52:43.397Z,12.32
2023-08-02T01:55:10.382Z,12.50
2023-08-02T01:57:37.038Z,12.65
2023-08-02T02:00:04.269Z,13.00
2023-08-02T02:02:31.073Z,12.80
2023-08-02T02:04:57.813Z,12.63
2023-08-02T02:07:24.983Z,11.90
2023-08-02T02:09:51.816Z,12.75
2023-08-02T02:12:18.597Z,14.38
2023-08-02T02:14:45.402Z,14.68
2023-08-02T02:17:12.088Z,12.15
2023-08-02T02:19:39.099Z,15.30
2023-08-02T02:22:05.919Z,12.90
2023-08-02T02:24:32.681Z,12.27
2023-08-02T02:26:59.488Z,13.93
2023-08-02T02:29:26.237Z,13.43
2023-08-02T02:31:52.972Z,12.70
2023-08-02T02:34:19.675Z,13.75
2023-08-02T02:36:47.344Z,13.43
2023-08-02T02:39:13.996Z,14.68
2023-08-02T02:41:40.690Z,13.65
2023-08-02T02:44:07.439Z,13.02
2023-08-02T02:46:34.210Z,14.13
2023-08-02T02:49:00.965Z,12.82
2023-08-02T02:51:27.804Z,14.00
2023-08-02T02:53:54.431Z,14.40
2023-08-02T02:56:21.274Z,12.18
2023-08-02T02:58:48.121Z,13.68
2023-08-02T03:01:15.040Z,12.98
2023-08-02T03:03:41.790Z,11.57
2023-08-02T03:06:08.529Z,10.52
2023-08-02T03:08:35.392Z,10.52
2023-08-02T03:11:02.153Z,10.23
2023-08-02T03:13:28.831Z,9.02
2023-08-02T03:15:55.482Z,8.13
2023-08-02T03:18:22.158Z,8.60
2023-08-02T03:20:48.869Z,9.35
2023-08-02T03:23:15.616Z,8.40
2023-08-02T03:25:42.307Z,8.18
2023-08-02T03:28:08.972Z,8.55
2023-08-02T03:30:35.744Z,8.68
2023-08-02T03:33:02.503Z,8.93
2023-08-02T03:35:29.178Z,7.50
2023-08-02T03:37:55.781Z,9.95
2023-08-02T03:40:22.428Z,8.10
2023-08-02T03:42:49.192Z,8.32
2023-08-02T03:45:15.868Z,8.95
2023-08-02T03:47:42.607Z,8.52
2023-08-02T03:50:09.646Z,8.95
2023-08-02T03:52:36.361Z,8.65
2023-08-02T03:55:03.234Z,7.82
2023-08-02T03:57:30.013Z,7.90
2023-08-02T03:59:56.787Z,8.60
2023-08-02T04:02:23.542Z,8.02
2023-08-02T04:04:50.261Z,8.15
2023-08-02T04:07:17.004Z,7.07
2023-08-02T04:09:43.817Z,7.95
2023-08-02T04:12:10.482Z,10.82
2023-08-02T04:14:37.108Z,7.90
2023-08-02T04:17:04.077Z,9.60
2023-08-02T04:19:30.818Z,7.80
2023-08-02T04:21:57.488Z,8.13
2023-08-02T04:24:24.703Z,8.40
2023-08-02T04:26:51.401Z,7.57
2023-08-02T04:29:18.180Z,7.40
2023-08-02T04:31:44.963Z,6.80
2023-08-02T04:34:11.763Z,8.20
2023-08-02T04:36:38.724Z,6.88
2023-08-02T04:39:08.004Z,7.93
2023-08-02T04:41:35.501Z,9.18
2023-08-02T04:44:02.209Z,8.68
2023-08-02T04:46:29.112Z,9.40
2023-08-02T04:48:55.990Z,9.23
2023-08-02T04:51:22.838Z,10.10
2023-08-02T04:53:49.611Z,8.02
2023-08-02T04:56:16.901Z,11.05
2023-08-02T04:58:43.841Z,8.65
2023-08-02T05:01:10.777Z,9.00
2023-08-02T05:03:37.538Z,8.73
2023-08-02T05:06:07.193Z,9.57
2023-08-02T05:08:37.060Z,10.10
2023-08-02T05:11:07.669Z,8.65
2023-08-02T05:13:34.778Z,7.70
2023-08-02T05:16:01.731Z,8.82
2023-08-02T05:18:28.529Z,8.02
2023-08-02T05:20:55.312Z,9.50
2023-08-02T05:23:22.186Z,7.43
2023-08-02T05:25:48.952Z,7.60
2023-08-02T05:28:15.744Z,9.30
2023-08-02T05:30:42.426Z,7.72
2023-08-02T05:33:09.230Z,8.27
2023-08-02T05:35:35.982Z,7.75
2023-08-02T05:38:03.296Z,8.55
2023-08-02T05:40:30.060Z,7.70
2023-08-02T05:42:58.080Z,8.68
2023-08-02T05:45:25.401Z,7.85
2023-08-02T05:47:52.344Z,8.80
2023-08-02T05:50:19.253Z,10.15
2023-08-02T05:52:45.985Z,8.25
2023-08-02T05:55:13.544Z,7.40
2023-08-02T05:57:40.401Z,8.00
2023-08-02T06:00:08.800Z,10.10
2023-08-02T06:02:36.158Z,8.30
2023-08-02T06:05:03.008Z,11.20
2023-08-02T06:07:29.651Z,9.48
2023-08-02T06:09:56.316Z,8.50
2023-08-02T06:12:23.296Z,9.77
2023-08-02T06:14:50.035Z,9.20
2023-08-02T06:17:16.702Z,8.88
2023-08-02T06:19:43.568Z,7.93
2023-08-02T06:22:10.298Z,8.50
2023-08-02T06:24:37.230Z,8.00
2023-08-02T06:27:06.610Z,7.65
2023-08-02T06:29:33.340Z,9.43
2023-08-02T06:32:00.121Z,7.03
2023-08-02T06:34:26.800Z,7.90
2023-08-02T06:36:53.438Z,7.75
2023-08-02T06:39:20.107Z,10.13
2023-08-02T06:41:47.110Z,8.70
2023-08-02T06:44:14.874Z,8.32
2023-08-02T06:46:42.334Z,8.32
2023-08-02T06:49:09.147Z,7.25
2023-08-02T06:51:35.935Z,7.50
2023-08-02T06:54:02.648Z,7.90
2023-08-02T06:56:29.451Z,8.75
2023-08-02T06:58:56.257Z,7.40
2023-08-02T07:01:24.349Z,7.07
2023-08-02T07:03:51.519Z,7.07
2023-08-02T07:06:20.241Z,6.57
2023-08-02T07:08:47.542Z,6.95
2023-08-02T07:11:26.054Z,6.40
2023-08-02T07:13:57.325Z,6.65
2023-08-02T07:16:24.046Z,7.88
2023-08-02T07:18:50.747Z,6.93
2023-08-02T07:21:17.479Z,7.10
2023-08-02T07:23:44.257Z,7.63
2023-08-02T07:26:11.099Z,7.47
2023-08-02T07:28:37.765Z,7.90
2023-08-02T07:31:09.097Z,9.55
2023-08-02T07:33:36.046Z,9.27
2023-08-02T07:36:03.242Z,9.63
2023-08-02T07:38:30.157Z,9.82
2023-08-02T07:40:56.830Z,10.07
2023-08-02T07:43:23.527Z,9.02
2023-08-02T07:45:50.179Z,10.15
2023-08-02T07:48:16.911Z,9.90
2023-08-02T07:50:43.634Z,8.82
2023-08-02T07:53:10.343Z,9.52
2023-08-02T07:55:37.204Z,9.15
2023-08-02T07:58:03.839Z,9.38
2023-08-02T08:00:30.502Z,8.38
2023-08-02T08:02:57.196Z,9.07
2023-08-02T08:05:23.901Z,9.18
2023-08-02T08:07:50.517Z,8.45
2023-08-02T08:10:17.256Z,8.50
2023-08-02T08:12:44.151Z,8.25
2023-08-02T08:15:10.857Z,8.38
2023-08-02T08:17:37.751Z,7.25
2023-08-02T08:20:06.635Z,8.55
2023-08-02T08:22:33.577Z,8.40
2023-08-02T08:25:00.421Z,8.90
2023-08-02T08:27:27.121Z,9.73
2023-08-02T08:29:53.819Z,8.88
2023-08-02T08:32:21.541Z,8.35
2023-08-02T08:34:48.405Z,8.95
2023-08-02T08:37:15.101Z,9.00
2023-08-02T08:39:41.809Z,6.80
2023-08-02T08:42:09.320Z,7.60
2023-08-02T08:44:39.630Z,7.72
2023-08-02T08:47:09.809Z,12.40
2023-08-02T08:49:36.516Z,7.32
2023-08-02T08:52:05.559Z,7.63
2023-08-02T08:54:33.345Z,7.25
2023-08-02T08:57:00.684Z,6.47
2023-08-02T08:59:27.462Z,7.30
2023-08-02T09:01:54.412Z,8.35
2023-08-02T09:04:21.097Z,6.65
2023-08-02T09:06:47.804Z,7.00
2023-08-02T09:09:15.891Z,6.85
2023-08-02T09:11:43.810Z,8.00
2023-08-02T09:14:12.266Z,5.20
2023-08-02T09:16:58.980Z,7.07
2023-08-02T09:19:31.192Z,6.63
2023-08-02T09:22:17.350Z,5.65
2023-08-02T09:24:45.510Z,5.25
2023-08-02T09:27:15.343Z,5.07
2023-08-02T09:29:50.050Z,5.78
2023-08-02T09:32:18.340Z,7.13
2023-08-02T09:34:47.356Z,5.28
2023-08-02T09:37:15.448Z,6.10
2023-08-02T09:39:52.228Z,7.43
2023-08-02T09:42:23.323Z,4.30
2023-08-02T09:45:00.324Z,5.53
2023-08-02T09:47:28.420Z,5.35
2023-08-02T09:50:05.067Z,5.50
2023-08-02T09:52:32.016Z,6.55
2023-08-02T09:54:58.761Z,6.10
2023-08-02T09:57:29.807Z,5.10
2023-08-02T10:00:07.994Z,4.82
2023-08-02T10:02:38.754Z,7.57
2023-08-02T10:05:08.534Z,5.43
2023-08-02T10:07:42.903Z,5.60
2023-08-02T10:10:23.610Z,6.80
2023-08-02T10:12:55.833Z,5.32
2023-08-02T10:15:23.609Z,6.78
2023-08-02T10:17:50.599Z,5.32
2023-08-02T10:20:18.376Z,5.15
2023-08-02T10:22:45.567Z,5.15
2023-08-02T10:25:14.925Z,6.13
2023-08-02T10:27:42.410Z,5.68
2023-08-02T10:30:10.131Z,5.32
2023-08-02T10:32:37.056Z,5.75
2023-08-02T10:35:04.183Z,6.60
2023-08-02T10:37:53.750Z,5.50
2023-08-02T10:40:22.855Z,5.95
2023-08-02T10:43:06.840Z,6.65
2023-08-02T10:45:34.455Z,4.50
2023-08-02T10:48:23.181Z,5.20
2023-08-02T10:50:50.365Z,4.97
2023-08-02T10:53:17.142Z,5.07
2023-08-02T10:56:04.263Z,5.05
2023-08-02T10:58:53.489Z,5.35
2023-08-02T11:01:21.170Z,7.28
2023-08-02T11:03:48.257Z,6.80
2023-08-02T11:06:24.843Z,7.93
2023-08-02T11:08:51.624Z,5.13
2023-08-02T11:11:28.924Z,5.45
2023-08-02T11:13:55.684Z,5.50
2023-08-02T11:16:23.450Z,5.82
2023-08-02T11:18:51.121Z,6.00
2023-08-02T11:21:18.074Z,5.18
2023-08-02T11:26:19.156Z,6.15
2023-08-02T11:28:51.124Z,4.93
2023-08-02T11:31:18.327Z,6.32
2023-08-02T11:33:45.595Z,5.07
2023-08-02T11:36:12.576Z,6.95
2023-08-02T11:38:39.656Z,5.28
2023-08-02T11:41:23.037Z,6.50
2023-08-02T11:43:50.075Z,5.25
2023-08-02T11:46:22.662Z,5.45
2023-08-02T11:48:49.846Z,5.70
2023-08-02T11:51:18.514Z,5.22
2023-08-02T11:53:57.000Z,4.75
2023-08-02T11:56:25.304Z,5.10
2023-08-02T11:58:52.486Z,4.63
2023-08-02T12:01:20.062Z,6.18
2023-08-02T12:04:01.973Z,5.75
2023-08-02T12:06:47.537Z,5.55
2023-08-02T12:09:15.471Z,4.82
2023-08-02T12:11:43.224Z,4.38
2023-08-02T12:14:09.892Z,5.75
2023-08-02T12:16:43.978Z,4.57
2023-08-02T12:21:40.929Z,5.88
2023-08-02T12:24:14.896Z,5.30
2023-08-02T12:26:41.916Z,5.22
2023-08-02T12:29:08.853Z,4.80
2023-08-02T12:31:43.225Z,5.28
2023-08-02T12:34:10.700Z,4.95
2023-08-02T12:36:38.129Z,4.72
2023-08-02T12:39:05.522Z,5.32
2023-08-02T12:41:32.360Z,4.90
2023-08-02T12:44:02.484Z,5.25
2023-08-02T12:46:31.313Z,5.15
2023-08-02T12:48:58.194Z,6.35
2023-08-02T12:51:25.311Z,5.93
2023-08-02T12:53:52.105Z,5.25
2023-08-02T12:56:18.762Z,6.53
2023-08-02T12:58:45.455Z,5.38
2023-08-02T13:01:12.237Z,5.90
2023-08-02T13:03:39.025Z,4.97
2023-08-02T13:06:05.760Z,5.95
2023-08-02T13:08:32.489Z,7.72
2023-08-02T13:10:59.223Z,5.40
2023-08-02T13:13:25.931Z,5.22
2023-08-02T13:15:53.073Z,6.78
2023-08-02T13:18:19.864Z,5.70
2023-08-02T13:20:46.649Z,5.40
2023-08-02T13:23:13.309Z,5.30
2023-08-02T13:25:40.124Z,4.68
2023-08-02T13:28:07.985Z,5.53
2023-08-02T13:30:35.113Z,6.57
2023-08-02T13:33:02.059Z,4.55
2023-08-02T13:35:29.198Z,4.28
2023-08-02T13:37:56.006Z,5.53
2023-08-02T13:40:22.682Z,5.20
2023-08-02T13:42:49.321Z,3.80
2023-08-02T13:45:16.088Z,4.55
2023-08-02T13:47:42.863Z,5.38
2023-08-02T13:50:10.017Z,4.60
2023-08-02T13:52:36.651Z,4.40
2023-08-02T13:55:03.766Z,9.25
2023-08-02T13:57:30.493Z,6.30
2023-08-02T13:59:57.122Z,3.60
2023-08-02T14:02:23.774Z,4.88
2023-08-02T14:04:50.857Z,4.60
2023-08-02T14:07:17.784Z,5.20
2023-08-02T14:09:44.452Z,8.98
2023-08-02T14:12:11.328Z,6.00
2023-08-02T14:14:39.266Z,5.55
2023-08-02T14:17:06.408Z,5.90
2023-08-02T14:19:33.238Z,5.85
2023-08-02T14:22:00.043Z,5.53
2023-08-02T14:24:27.320Z,5.97
2023-08-02T14:26:53.989Z,5.20
2023-08-02T14:29:20.706Z,6.97
2023-08-02T14:31:47.320Z,5.75
2023-08-02T14:34:14.024Z,8.27
2023-08-02T14:36:41.028Z,7.15
2023-08-02T14:39:07.899Z,6.68
2023-08-02T14:41:34.580Z,6.50
2023-08-02T14:44:01.405Z,7.95
2023-08-02T14:46:28.161Z,8.43
2023-08-02T14:48:54.882Z,7.93
2023-08-02T14:51:21.610Z,8.88
2023-08-02T14:53:52.263Z,8.73
2023-08-02T14:56:21.369Z,9.15
2023-08-02T14:58:48.259Z,9.55
2023-08-02T15:01:14.982Z,7.20
2023-08-02T15:03:41.717Z,7.05
2023-08-02T15:06:08.510Z,10.68
2023-08-02T15:08:35.419Z,8.30
2023-08-02T15:11:02.062Z,5.88
2023-08-02T15:13:28.805Z,8.38
2023-08-02T15:15:55.492Z,7.47
2023-08-02T15:18:22.204Z,5.60
2023-08-02T15:20:49.015Z,6.03
2023-08-02T15:23:15.690Z,5.35
2023-08-02T15:25:42.366Z,6.78
2023-08-02T15:28:09.058Z,6.63
2023-08-02T15:30:35.772Z,6.40
2023-08-02T15:33:02.437Z,6.20
2023-08-02T15:35:29.373Z,8.52
2023-08-02T15:37:56.052Z,7.30
2023-08-02T15:40:23.249Z,6.63
2023-08-02T15:42:50.020Z,7.55
2023-08-02T15:45:16.863Z,5.25
2023-08-02T15:47:43.631Z,6.25
2023-08-02T15:50:10.681Z,11.45
2023-08-02T15:52:37.347Z,12.48
2023-08-02T15:55:04.275Z,11.93
2023-08-02T15:57:31.103Z,10.98
2023-08-02T15:59:57.882Z,11.38
2023-08-02T16:02:24.620Z,8.55
2023-08-02T16:04:51.501Z,9.80
2023-08-02T16:07:19.698Z,13.95
2023-08-02T16:09:46.458Z,9.15
2023-08-02T16:12:13.138Z,9.60
2023-08-02T16:14:39.904Z,12.02
2023-08-02T16:17:06.742Z,11.85
2023-08-02T16:19:33.635Z,12.98
2023-08-02T16:22:00.380Z,10.10
2023-08-02T16:24:27.052Z,12.25
2023-08-02T16:26:53.702Z,12.27
2023-08-02T16:29:20.440Z,11.65
2023-08-02T16:31:47.145Z,19.40
2023-08-02T16:34:13.843Z,23.27
2023-08-02T16:36:40.526Z,11.05
2023-08-02T16:39:07.309Z,10.75
2023-08-02T16:41:34.009Z,14.32
2023-08-02T16:44:00.652Z,13.95
2023-08-02T16:46:27.799Z,11.40
2023-08-02T16:48:54.798Z,10.73
2023-08-02T16:51:22.920Z,13.80
2023-08-02T16:53:49.604Z,9.73
2023-08-02T16:56:16.253Z,10.73
2023-08-02T16:58:42.928Z,12.27
2023-08-02T17:01:09.949Z,11.50
2023-08-02T17:03:36.682Z,13.60
2023-08-02T17:06:03.481Z,13.02
2023-08-02T17:08:30.345Z,14.30
2023-08-02T17:10:57.065Z,12.00
2023-08-02T17:13:23.833Z,11.70
2023-08-02T17:15:50.480Z,10.77
2023-08-02T17:18:17.256Z,12.52
2023-08-02T17:20:44.060Z,13.10
2023-08-02T17:23:10.860Z,11.55
2023-08-02T17:25:37.617Z,12.90
2023-08-02T17:28:04.466Z,13.80
2023-08-02T17:30:32.359Z,15.30
2023-08-02T17:32:59.094Z,17.05
2023-08-02T17:35:25.742Z,15.45
2023-08-02T17:37:54.520Z,13.18
2023-08-02T17:40:21.678Z,14.93
2023-08-02T17:42:49.150Z,14.40
2023-08-02T17:45:16.512Z,15.68
2023-08-02T17:47:43.366Z,13.23
2023-08-02T17:50:10.449Z,16.05
2023-08-02T17:52:37.148Z,12.23
2023-08-02T17:55:04.117Z,21.10
2023-08-02T17:57:30.823Z,15.73
2023-08-02T17:59:58.613Z,15.90
2023-08-02T18:02:25.500Z,15.20
2023-08-02T18:04:55.613Z,14.93
2023-08-02T18:07:22.396Z,14.23
2023-08-02T18:09:49.166Z,14.38
2023-08-02T18:12:15.855Z,13.73
2023-08-02T18:14:42.579Z,15.35
2023-08-02T18:17:09.292Z,14.73
2023-08-02T18:19:36.724Z,14.77
2023-08-02T18:22:03.483Z,18.67
2023-08-02T18:24:37.031Z,17.00
2023-08-02T18:27:06.029Z,16.95
2023-08-02T18:29:32.722Z,14.65
2023-08-02T18:31:59.580Z,15.70
2023-08-02T18:34:26.428Z,17.65
2023-08-02T18:36:53.119Z,17.52
2023-08-02T18:39:22.651Z,18.38
2023-08-02T18:41:49.436Z,16.30
2023-08-02T18:44:16.248Z,16.20
2023-08-02T18:46:42.910Z,17.83
2023-08-02T18:49:09.680Z,16.98
2023-08-02T18:51:36.435Z,16.30
2023-08-02T18:54:03.170Z,16.30
2023-08-02T18:56:29.836Z,30.58
2023-08-02T18:58:57.058Z,16.42
2023-08-02T19:01:23.877Z,15.63
2023-08-02T19:03:52.131Z,15.85
2023-08-02T19:06:19.079Z,16.90
2023-08-02T19:08:47.616Z,16.63
2023-08-02T19:11:25.021Z,16.83
2023-08-02T19:13:56.071Z,17.73
2023-08-02T19:16:23.476Z,18.30
2023-08-02T19:18:50.317Z,17.70
2023-08-02T19:21:17.081Z,17.40
2023-08-02T19:23:45.087Z,16.48
2023-08-02T19:26:18.926Z,16.40
2023-08-02T19:28:45.825Z,19.95
2023-08-02T19:31:15.046Z,19.02
2023-08-02T19:33:44.545Z,16.27
2023-08-02T19:36:22.022Z,15.48
2023-08-02T19:38:49.716Z,17.17
2023-08-02T19:41:20.586Z,15.90
2023-08-02T19:43:47.912Z,16.45
2023-08-02T19:46:15.168Z,14.60
2023-08-02T19:48:42.415Z,15.50
2023-08-02T19:51:09.240Z,16.92
2023-08-02T19:53:36.530Z,15.23
2023-08-02T19:56:05.332Z,16.95
2023-08-02T19:58:32.164Z,16.45
2023-08-02T20:00:58.855Z,16.58
2023-08-02T20:03:29.314Z,15.55
2023-08-02T20:06:01.511Z,15.90
2023-08-02T20:08:33.153Z,17.10
2023-08-02T20:11:00.860Z,16.02
2023-08-02T20:13:32.974Z,15.50
2023-08-02T20:16:00.952Z,17.70
2023-08-02T20:18:27.861Z,22.00
2023-08-02T20:20:55.934Z,15.57
2023-08-02T20:23:25.936Z,16.15
2023-08-02T20:25:54.632Z,16.25
2023-08-02T20:28:21.934Z,17.42
2023-08-02T20:30:52.267Z,18.80
2023-08-02T20:33:20.961Z,16.75
2023-08-02T20:35:47.902Z,17.48
2023-08-02T20:38:16.693Z,19.92
2023-08-02T20:40:44.358Z,17.98
2023-08-02T20:43:13.021Z,19.08
2023-08-02T20:45:44.792Z,18.33
2023-08-02T20:48:12.714Z,19.15
2023-08-02T20:50:46.896Z,19.15
2023-08-02T20:53:16.128Z,20.38
2023-08-02T20:55:43.991Z,18.40
2023-08-02T20:58:15.114Z,17.38
2023-08-02T21:00:51.258Z,20.30
2023-08-02T21:03:18.550Z,18.48
2023-08-02T21:05:45.273Z,19.55
2023-08-02T21:08:12.078Z,17.35
2023-08-02T21:10:38.924Z,18.42
2023-08-02T21:13:05.637Z,14.30
2023-08-02T21:15:32.547Z,15.75
2023-08-02T21:17:59.335Z,16.48
2023-08-02T21:20:40.734Z,14.32
2023-08-02T21:23:10.698Z,15.77
2023-08-02T21:25:42.959Z,14.40
2023-08-02T21:28:14.164Z,14.70
2023-08-02T21:30:43.169Z,15.25
2023-08-02T21:33:11.430Z,16.73
2023-08-02T21:35:38.853Z,16.60
2023-08-02T21:38:16.678Z,18.90
2023-08-02T21:40:43.367Z,16.20
2023-08-02T21:43:16.022Z,17.02
2023-08-02T21:45:42.807Z,15.80
2023-08-02T21:48:10.129Z,17.90
2023-08-02T21:50:36.891Z,14.68
2023-08-02T21:53:04.788Z,15.93
2023-08-02T21:55:34.964Z,16.90
2023-08-02T21:58:04.380Z,15.15
2023-08-02T22:00:31.184Z,13.38
2023-08-02T22:03:01.151Z,12.63
2023-08-02T22:05:28.036Z,13.80
2023-08-02T22:07:54.930Z,14.18
2023-08-02T22:10:23.072Z,12.60
2023-08-02T22:12:49.761Z,14.93
2023-08-02T22:15:17.489Z,13.35
2023-08-02T22:17:44.792Z,13.32
2023-08-02T22:20:11.955Z,14.35
2023-08-02T22:22:38.746Z,12.95
2023-08-02T22:25:05.979Z,17.48
2023-08-02T22:27:33.239Z,15.95
2023-08-02T22:30:00.083Z,15.45
2023-08-02T22:32:27.715Z,13.35
2023-08-02T22:34:54.876Z,15.10
2023-08-02T22:37:21.504Z,14.52
2023-08-02T22:39:48.236Z,17.08
2023-08-02T22:42:14.881Z,19.10
2023-08-02T22:44:41.570Z,16.42
2023-08-02T22:47:08.249Z,14.55
2023-08-02T22:50:43.422Z,16.75
2023-08-02T22:52:23.716Z,20.10
2023-08-02T22:54:54.014Z,19.05
2023-08-02T22:57:25.982Z,18.58
2023-08-02T22:59:52.944Z,23.08
2023-08-02T23:02:19.669Z,26.55
2023-08-02T23:04:50.962Z,23.20
2023-08-02T23:07:22.521Z,24.90
2023-08-02T23:09:49.580Z,20.45
2023-08-02T23:12:20.515Z,23.70
2023-08-02T23:14:51.702Z,23.88
2023-08-02T23:17:18.688Z,24.35
2023-08-02T23:19:46.269Z,23.20
2023-08-02T23:22:13.686Z,25.30
2023-08-02T23:24:43.539Z,23.63
2023-08-02T23:27:25.271Z,25.80
2023-08-02T23:29:52.379Z,25.95
2023-08-02T23:32:19.007Z,26.50
2023-08-02T23:34:46.082Z,27.15
2023-08-02T23:37:12.915Z,28.60
2023-08-02T23:39:39.531Z,27.67
2023-08-02T23:42:07.203Z,26.40
2023-08-02T23:44:36.996Z,26.70
2023-08-02T23:47:03.962Z,25.25
2023-08-02T23:49:30.649Z,24.33
2023-08-02T23:51:59.227Z,27.17
2023-08-02T23:54:27.444Z,23.65
2023-08-02T23:56:54.162Z,25.25
2023-08-02T23:59:20.923Z,24.65
